Worst METAR reports worldwide for Flight Simulation

Atmospheric pressure

Low pressure

Station Wind Gust Vis(SM) Temp/Dew Baro
NZSP 7 0.99 -63/ 29.07
NZSP 111750Z 05007KT 1600 IC SKC M63/ A2907 RMK CLN AIR 07001KT ALL WNDS GRID
SCGZ 15 6.21 4/-2 29.08
SCGZ 111800Z 28015KT 9999 FEW036 SCT042 04/M02 Q0985
SAWH 14 6.21 3/-1 29.08
SAWH 111800Z 23014KT 9999 SCT040 SCT080 03/M01 Q0985
SAWE 19 29 6.21 5/-1 29.17
SAWE 111800Z 27019G29KT 9999 SCT012 05/M01 Q0988
CWZZ 39 53 19/14 29.18
CWZZ 111800Z AUTO 27039G53KT ////SM OVC025 19/14 A2918

Station Wind Gust Vis(SM) Temp/Dew Baro
SCCI 25 3.73 3/1 29.20
SCCI 111809Z 29025KT 6000 -RA FEW018 BKN020 03/01 Q0989 NOSIG
SCFM 19 6.21 4/0 29.23
SCFM 111800Z 26019KT 9999 FEW020 BKN100 04/00 Q0990
CYTQ 24 31 15 23/14 29.26
CYTQ 111800Z 26024G31KT 15SM FEW040 SCT160 23/14 A2926 RMK SC2AC2 SLP911 DENSITY ALT 1900FT
SCRM 62 73 0.06 -13/-15 29.26
SCRM 111800Z 10062G73KT 0100 SN BLSN VV001 M13/M15 Q0991 NOSIG
CYPX 8 1 15/15 29.27
CYPX 111800Z AUTO 05008KT 1SM -RA BR SCT007 BKN011 OVC015 15/15 A2927 RMK PCPN 1.5MM PAST HR SLP913 DENSITY ALT 800FT
CYPH 9 9 14/13 29.28
CYPH 111812Z AUTO 22009KT 9SM BKN006 OVC046 14/13 A2928 RMK SLP918 DENSITY ALT 700FT
CYAS 18 10 9/8 29.28
CYAS 111800Z 03018KT 10SM -RA BKN004 OVC018 09/08 A2928 RMK ST6ST2 SLP921 DENSITY ALT 500FT
EGYP 11 6.21 5/-4 29.29
EGYP 111750Z 28011KT 9999 FEW035 05/M04 Q0992 NOSIG
CYLU 3 4 13/13 29.30
CYLU 111806Z 32003KT 290V360 4SM -RA BCFG OVC002 13/13 A2930 RMK FG4ST4 PRESRR SLP925 DENSITY ALT 800FT
CYVP 15 31 15 24/14 29.30
CYVP 111800Z 25015G31KT 15SM BKN042 BKN100 24/14 A2930 RMK CU5AC1 SLP923 DENSITY ALT 2000FT
CWOB 4/2 29.30
CWOB 111800Z AUTO ///// ////SM OVC044 04/02 A2930
CYLC 9 18 15 17/3 29.31
CYLC 111800Z 06009G18KT 15SM FEW050 BKN220 BKN300 17/03 A2931 RMK CU1CS3CI2 SLP930 DENSITY ALT 1200FT
SAWG 22 34 6.21 5/-1 29.32
SAWG 111800Z 25022G34KT 9999 FEW010 SCT200 05/M01 Q0993
CYKG 20 15 10/4 29.33
CYKG 111800Z 36020KT 15SM FEW030 BKN130 10/04 A2933 RMK SC1AS6 SLP942 DENSITY ALT 700FT
CYHA 7 0.63 7/7 29.33
CYHA 111800Z 35007KT 5/8SM -RA BR VV003 07/07 A2933 RMK FG8 SLP935
CYFB 15 23 30 16/-1 29.33
CYFB 111800Z 35015G23KT 330V030 30SM FEW070 SCT250 16/M01 A2933 RMK AC1CI2 CU ASOCTD SLP935 DENSITY ALT 1000FT
CYXP 16 15 9/4 29.34
CYXP 111800Z 26016KT 15SM SCT035 09/04 A2934 RMK SC3 TCU EMBDD SLP939
CYSK 15 15 15/13 29.34
CYSK 111800Z 23015KT 15SM BKN048 15/13 A2934 RMK SC6 SLP939 DENSITY ALT 900FT
UNOO 2 6.21 17/15 29.35
UNOO 111800Z 23001MPS 9999 SCT033CB 17/15 Q0994 R07/210060 NOSIG RMK QFE737
CYER 8 7 17/15 29.36
CYER 111805Z AUTO 27008KT 7SM -RA SCT016 BKN022 BKN029 OVC035 17/15 A2936 RMK SLP945 DENSITY ALT 900FT
CYDP 14 26 15 26/15 29.36
CYDP 111800Z 26014G26KT 15SM FEW035 SCT040 BKN052 BKN110 BKN250 26/15 A2936 RMK CU1SC3SC2AC2CS1 CU TR CS TR G34 PAST HR PRESRR SLP943 DENSITY ALT 2000FT
CYPO 6 9 19/14 29.38
CYPO 111812Z AUTO 33006KT 270V340 9SM SCT035 BKN055 BKN078 BKN093 19/14 A2938 RMK SLP948 DENSITY ALT 1200FT
SCNT 26 36 6.21 5/0 29.41
SCNT 111800Z 30026G36KT 260V340 9999 SCT040 OVC100 05/00 Q0996
OPSK 10 2.49 33/27 29.41
OPSK 111800Z 18010KT 4000 HZ NSC 33/27 Q0996 NOSIG
OPMT 10 2.49 34/27 29.41
OPMT 111800Z 23010KT 4000 FU SCT100 34/27 Q0996 NOSIG
OIAM 8 6.21 37/21 29.41
OIAM 111800Z 28008KT CAVOK 37/21 Q0996
CYVM 7 15 5/3 29.41
CYVM 111800Z 03007KT 010V070 15SM BKN011 BKN014 OVC033 05/03 A2941 RMK ST5SC2SC1 SLP960
CYGW 7 9 19/14 29.41
CYGW 111800Z AUTO 25007KT 9SM FEW047 SCT055 BKN070 BKN083 19/14 A2941 RMK SLP960 DENSITY ALT 1000FT
CYAT 16 24 9 27/12 29.42
CYAT 111800Z AUTO 24016G24KT 190V260 9SM FEW070 SCT081 SCT120 27/12 A2942 RMK SLP964 DENSITY ALT 1900FT
USRR 4 6.21 19/17 29.44
USRR 111800Z 08002MPS 9999 FEW040CB 19/17 Q0997 R07/CLRD60 NOSIG RMK QFE743
UASP 6 6.21 17/9 29.44
UASP 111800Z 05003MPS 9999 SCT050CB BKN100 17/09 Q0997 R21/0///70 NOSIG RMK QFE736/0982
OMDB 5 6.21 37/26 29.44
OMDB 111800Z 33005KT 300V010 CAVOK 37/26 Q0997 NOSIG
OMAD 6 6.21 36/28 29.44
OMAD 111800Z 34006KT CAVOK 36/28 Q0997 BECMG VRB02KT
OMAA 6 6.21 35/31 29.44
OMAA 111800Z 36006KT CAVOK 35/31 Q0997 BECMG VRB02KT
OIKQ 6 4.97 35/30 29.44
OIKQ 111800Z 07006KT 8000 NSC 35/30 Q0997
OIKB 8 3.11 34/29 29.44
OIKB 111800Z 11008KT 5000 HZ BKN100 34/29 Q0997 A2947
OIBL 6 3.73 35/30 29.44
OIBL 111800Z 27006KT 6000 NSC 35/30 Q0997
OIBK 4 3.11 33/31 29.44
OIBK 111800Z 26004KT 5000 BR NSC 33/31 Q0997
OIBB 6 6.21 34/25 29.44
OIBB 111800Z 29006KT CAVOK 34/25 Q0997 A2945
OIAW 6 6.21 39/13 29.44
OIAW 111800Z 28006KT CAVOK 39/13 Q0997
NZAA 8 6.21 13/12 29.44
NZAA 111800Z AUTO 12008KT 9999 VCSH NCD 13/12 Q0997 NOSIG
OPLA 0 2.49 31/27 29.44
OPLA 111759Z 00000KT 4000 FU SCT100 31/27 Q0997 NOSIG RMK QFE969 RMK A29.45
VIJU 1 3.73 31/29 29.44
VIJU 111730Z VRB01KT 6000 FEW025 SCT090 31/29 Q0997 NOSIG
VIAR 0 1.86 31/28 29.47
VIAR 111800Z 00000KT 3000 BR SCT100 31/28 Q0998 NOSIG
USNN 0 6.21 19/15 29.47
USNN 111800Z 00000MPS CAVOK 19/15 Q0998 R21/0///65 NOSIG RMK QFE743

High pressure

Station Wind Gust Vis(SM) Temp/Dew Baro
KMYP 15 27 10 16/-8 30.75
KMYP 111755Z AUTO 27015G27KT 10SM CLR 16/M08 A3075 RMK AO2
KCPW 16 24 10 15/-7 30.70
KCPW 111755Z AUTO 21016G24KT 180V240 10SM CLR 15/M07 A3070 RMK AO2
K0CO 14 10 12/3 30.66
K0CO 111755Z AUTO 28014KT 10SM BKN090 OVC120 12/03 A3066 RMK AO2 PWINO
KCCU 7 10 18/-7 30.64
KCCU 111755Z AUTO 11007KT 090V150 10SM SCT095 SCT120 18/M07 A3064 RMK AO2
K4BM 6 10 18/-11 30.60
K4BM 111755Z AUTO 22006KT 10SM SCT100 18/M11 A3060 RMK AO2

Station Wind Gust Vis(SM) Temp/Dew Baro
K5SM 4 16 10 16/-7 30.57
K5SM 111754Z AUTO 25004G16KT 10SM BKN100 16/M07 A3057 RMK AO2
LIMH 4 6.21 6/5 30.56
LIMH 111755Z 03004KT 9999 FEW000 BKN025 06/05 Q1035 REGR RMK BKN MON CLD SCT VAL CLD SCT VIS MIN 9999
KC99 10 17 10 15/-6 30.54
KC99 111754Z AUTO 31010G17KT 280V030 10SM SCT120 15/M06 A3054 RMK AO2
KVTP 6 15 10 20/-6 30.52
KVTP 111754Z AUTO 26006G15KT 10SM CLR 20/M06 A3052 RMK AO2
KC07 6 10 18/-2 30.51
KC07 111755Z AUTO 30006KT 10SM BKN110 18/M02 A3051 RMK AO2
SLLP 12 4.97 10/-4 30.50
SLLP 111800Z 12012KT 8000 VCSH SCT017 FEW020CB SCT070 BKN200 10/M04 Q1033
SLOR 8 4.35 13/-2 30.47
SLOR 111800Z 01008KT 7000 SCT020 SCT070 13/M02 Q1032
K7BM 5 10 22/-13 30.46
K7BM 111753Z AUTO 31005KT 10SM BKN110 22/M13 A3046 RMK AO2
KLXV 6 15 10 19/-7 30.46
KLXV 111753Z AUTO VRB06G15KT 10SM SCT110 19/M07 A3046 RMK AO2 SLP130 T01941072 58005 $
KTEX 15 23 10 22/-9 30.46
KTEX 111755Z AUTO 22015G23KT 10SM CLR 22/M09 A3046 RMK AO2
SETU 12 24 6.21 18/9 30.44
SETU 111800Z 08012G24KT 9999 BKN023 18/09 Q1031
SPJL 6 6.21 15/-8 30.41
SPJL 111800Z 07006KT 9999 BKN025 15/M08 Q1030 RMK PP000
KAXX 12 26 10 23/0 30.41
KAXX 111755Z AUTO 30012G26KT 10SM SCT120 24/M01 A3041 RMK AO2 T02391008 10241 20015
LIVC 7 15/12 30.38
LIVC 111755Z AUTO 23007KT //// 15/12 Q1029
MMTO 6 5 21/9 30.38
MMTO 111750Z 12006KT 5SM SCT015 BKN200 21/09 A3038 RMK SLP081 52004 965 8/104 HZY AC
SKIP 11 6.21 16/8 30.38
SKIP 111800Z 10011KT 9999 BKN020 16/08 A3038
KJTC 0 10 27/-2 30.37
KJTC 111750Z AUTO 00000KT 10SM FEW055 FEW070 FEW110 27/M02 A3037 RMK AO2
KPSO 6 10 25/-4 30.36
KPSO 111755Z AUTO 18006KT 10SM CLR 26/M05 A3036 RMK AO2 T02581047 10258 20081
KANK 3 10 28/-6 30.34
KANK 111755Z AUTO 22003KT 10SM CLR 29/M06 A3034 RMK AO1 T02861064 10290 20124
KRCV 13 17 10 26/-3 30.34
KRCV 111755Z AUTO 22013G17KT 140V240 10SM CLR 26/M04 A3034 RMK AO2 T02631039 10264 20096
KFLG 8 10 26/0 30.34
KFLG 111757Z 21008KT 10SM SCT100 27/01 A3034 RMK AO2 SLP161 T02670006 10272 20156 51001
PHSF 3 10 18/5 30.34
PHSF 111758Z AUTO 11003KT 10SM CLR 18/05 A3034 RMK AO2 SLP157 T01800050 10180 20084 52011 $
MMPB 0 9 22/9 30.33
MMPB 111740Z 00000KT 9SM SCT220 22/09 A3033 RMK 8/008 HZY ISOL CU
KBCE 22 30 10 25/-3 30.33
KBCE 111753Z AUTO 27022G30KT 10SM CLR 26/M04 A3033 RMK AO2 PK WND 24032/1725 SLP148 T02561039 10256 20050 58001 $
K04V 5 10 25/-2 30.33
K04V 111755Z AUTO 13005KT 10SM CLR 25/M02 A3033 RMK AO2 PWINO
LIRK 13 18/11 30.32
LIRK 111755Z AUTO 33013KT //// 18/11 Q1027
LIVP 6 6.21 15/7 30.32
LIVP 111755Z 24006KT 9999 FEW015CB 15/07 Q1027 RMK BKN SCT080 MON CLD SCT VAL NIL VIS MIN 9999
SCIR 11 6.21 11/8 30.32
SCIR 111800Z 11011KT 9999 BKN020 11/08 Q1027
SPZO 6 6.21 20/-2 30.32
SPZO 111800Z 31006KT 280V010 9999 SCT043 20/M02 Q1027 NOSIG RMK BIRD HAZARD RWY 28 PP000
MMMX 6 8 22/8 30.32
MMMX 111751Z 02006KT 8SM FEW020 SCT220 22/08 A3032 NOSIG RMK SLP095 57014 966 8/102 HZY
KGNB 6 10 25/-3 30.32
KGNB 111752Z AUTO 30006KT 10SM CLR 26/M04 A3032 RMK AO2 T02571036
KRQE 12 19 10 30/-3 30.32
KRQE 111753Z AUTO 28012G19KT 10SM CLR 31/M03 A3032 RMK AO2 SLP130 T03061033 10306 20100 58003 TSNO
KCMR 8 19 10 28/1 30.32
KCMR 111755Z AUTO 24008G19KT 210V280 10SM CLR 28/01 A3032 RMK AO2
KLAM 4 10 27/-7 30.32
KLAM 111755Z AUTO 13004KT 10SM CLR 28/M07 A3032 RMK AO2 T02751071 10287 20184
KSOW 4 9 28/0 30.32
KSOW 111755Z AUTO VRB04KT 9SM CLR 28/M00 A3032 RMK AO2
KCQC 10 10 28/-5 30.31
KCQC 111753Z AUTO 31010KT 10SM CLR 28/M05 A3031 RMK AO2 SLP146 6//// T02831050 10300 20133
KGCN 16 19 10 28/2 30.31
KGCN 111754Z 22016G19KT 10SM FEW110 29/02 A3031 RMK AO2 SLP166 T02890022 10289 20056 51003
KGNT 6 10 29/-3 30.31
KGNT 111755Z AUTO 29006KT 10SM CLR 30/M04 A3031 RMK AO2 T02991037 10309 20074
KGUC 9 16 10 25/-1 30.31
KGUC 111756Z AUTO 23009G16KT 10SM CLR 25/M02 A3031 RMK AO2 SLP174 T02501017 10250 20056 58018
MMZC 11 10 20/14 30.30
MMZC 111740Z 09011KT 10SM BKN020 BKN100 20/14 A3030 RMK 8/470
MMLO 8 10 24/13 30.30
MMLO 111746Z 06008KT 10SM BKN030 BKN250 24/13 A3030 RMK SLP114 57004 973 8/808 AC
MMQT 15 12 24/12 30.30
MMQT 111746Z 10015KT 12SM FEW020 SCT100 24/12 A3030 RMK 8/130
KALS 4 10 26/-6 30.30
KALS 111752Z AUTO 21004KT 10SM CLR 27/M06 A3030 RMK AO2 SLP158 T02671061 10272 20033 58013
KGUP 6 14 10 28/-5 30.30
KGUP 111753Z AUTO VRB06G14KT 10SM FEW120 29/M05 A3030 RMK AO2 SLP097 T02891050 10294 20089 58006
KAEJ 6 10 26/-7 30.30
KAEJ 111755Z AUTO 11006KT 10SM CLR 26/M07 A3030 RMK AO2 T02641070 10264 20100